Time;durP1;ratioP1;P1;durP2;ratioP2;P2;SDS_P1;SDS_P2;PMS_P1;PMS_P2;Temp;Humidity;BMP_temperature;BMP_pressure;BME280_temperature;BME280_humidity;BME280_pressure;Samples;Min_cycle;Max_cycle;Signal;HPM_P1;HPM_P2
2022/11/16 00:02:09;;;;;;;99.70;38.15;;;8.80;99.90;;;;;;5073545;28;20103;-72
2022/11/16 00:04:35;;;;;;;100.97;38.25;;;8.80;99.90;;;;;;5073154;28;20469;-72
2022/11/16 00:07:03;;;;;;;84.90;37.15;;;8.70;99.90;;;;;;5072798;28;20058;-71
2022/11/16 00:09:30;;;;;;;97.82;40.35;;;8.70;99.90;;;;;;5073357;28;20491;-72
2022/11/16 00:11:58;;;;;;;94.75;37.85;;;8.70;99.90;;;;;;5073037;28;20033;-72
2022/11/16 00:14:27;;;;;;;90.28;38.17;;;8.70;99.90;;;;;;5072943;28;20033;-72
2022/11/16 00:16:53;;;;;;;98.43;38.72;;;8.70;99.90;;;;;;5073058;28;20063;-72
2022/11/16 00:19:18;;;;;;;96.15;38.63;;;8.70;99.90;;;;;;5074171;28;20044;-72
2022/11/16 00:21:44;;;;;;;101.15;40.28;;;8.70;99.90;;;;;;5077268;28;20524;-72
2022/11/16 00:24:14;;;;;;;97.35;38.65;;;8.70;99.90;;;;;;5077149;28;20100;-72
2022/11/16 00:26:40;;;;;;;95.10;38.00;;;8.70;99.90;;;;;;5076902;28;20028;-72
2022/11/16 00:29:05;;;;;;;98.43;38.78;;;8.60;99.90;;;;;;5075453;28;20081;-71
2022/11/16 00:31:31;;;;;;;107.53;38.35;;;8.60;99.90;;;;;;5075893;28;20036;-71
2022/11/16 00:33:56;;;;;;;93.93;38.90;;;8.70;99.90;;;;;;5076472;28;20035;-71
2022/11/16 00:36:22;;;;;;;90.50;38.92;;;8.60;99.90;;;;;;5076279;28;20020;-71
2022/11/16 00:38:52;;;;;;;90.88;39.50;;;8.60;99.90;;;;;;5076550;28;20027;-71
2022/11/16 00:41:17;;;;;;;108.30;40.05;;;8.60;99.90;;;;;;5058255;28;20097;-72
2022/11/16 00:43:43;;;;;;;101.75;39.17;;;8.60;99.90;;;;;;5058564;28;20044;-72
2022/11/16 00:46:08;;;;;;;90.18;38.05;;;8.60;99.90;;;;;;5058770;28;20032;-72
2022/11/16 00:48:34;;;;;;;95.35;39.13;;;8.60;99.90;;;;;;5075271;28;20085;-72
2022/11/16 00:51:00;;;;;;;99.28;39.42;;;8.60;99.90;;;;;;5076451;28;20107;-72
2022/11/16 00:53:25;;;;;;;97.47;38.22;;;8.60;99.90;;;;;;5076342;28;20029;-71
2022/11/16 00:55:51;;;;;;;113.80;39.60;;;8.60;99.90;;;;;;5075896;28;20040;-71
2022/11/16 00:58:16;;;;;;;105.10;39.88;;;8.60;99.90;;;;;;5076819;28;20025;-71
2022/11/16 01:00:42;;;;;;;106.80;40.85;;;8.60;99.90;;;;;;5058250;28;20012;-71
2022/11/16 01:03:08;;;;;;;98.93;38.90;;;8.60;99.90;;;;;;5076249;28;20024;-72
2022/11/16 01:05:34;;;;;;;107.30;40.88;;;8.50;99.90;;;;;;5077137;28;20522;-71
2022/11/16 01:07:59;;;;;;;116.18;41.83;;;8.50;99.90;;;;;;5075264;28;20031;-71
2022/11/16 01:10:26;;;;;;;113.82;40.70;;;8.50;99.90;;;;;;5076928;28;20036;-72
2022/11/16 01:12:53;;;;;;;113.55;43.17;;;8.60;99.90;;;;;;5076158;28;20099;-71
2022/11/16 01:15:21;;;;;;;110.68;42.35;;;8.50;99.90;;;;;;5074825;28;20035;-72
2022/11/16 01:17:47;;;;;;;117.15;44.65;;;8.50;99.90;;;;;;5075180;28;20115;-71
2022/11/16 01:20:16;;;;;;;116.05;41.28;;;8.50;99.90;;;;;;5075918;28;20193;-72
2022/11/16 01:22:42;;;;;;;129.20;45.42;;;8.50;99.90;;;;;;5076059;28;20056;-72
2022/11/16 01:25:08;;;;;;;109.05;41.00;;;8.50;99.90;;;;;;5075629;28;20025;-71
2022/11/16 01:27:34;;;;;;;122.30;45.65;;;8.50;99.90;;;;;;5075591;28;20082;-71
2022/11/16 01:30:00;;;;;;;131.95;45.53;;;8.60;99.90;;;;;;5074852;28;20480;-72
2022/11/16 01:32:26;;;;;;;126.18;44.10;;;8.60;99.90;;;;;;5075330;28;20047;-71
2022/11/16 01:34:51;;;;;;;123.10;43.22;;;8.60;99.90;;;;;;5075547;28;20115;-71
2022/11/16 01:37:17;;;;;;;120.65;45.05;;;8.60;99.90;;;;;;5075828;28;20043;-72
2022/11/16 01:39:43;;;;;;;131.35;46.00;;;8.60;99.90;;;;;;5075483;28;20537;-71
2022/11/16 01:42:17;;;;;;;126.57;46.10;;;8.60;99.90;;;;;;5074956;28;20028;-71
2022/11/16 01:44:43;;;;;;;132.65;44.50;;;8.60;99.90;;;;;;5075430;28;20468;-71
2022/11/16 01:47:11;;;;;;;120.43;42.38;;;8.60;99.90;;;;;;5057471;28;20111;-72
2022/11/16 01:49:41;;;;;;;129.55;44.05;;;8.60;99.90;;;;;;5075443;28;20025;-71
2022/11/16 01:52:12;;;;;;;121.05;43.35;;;8.60;99.90;;;;;;5056818;28;20078;-71
2022/11/16 01:54:42;;;;;;;131.30;43.55;;;8.60;99.90;;;;;;5075133;28;20127;-71
2022/11/16 01:57:14;;;;;;;108.50;41.85;;;8.60;99.90;;;;;;5075107;28;20029;-72
2022/11/16 01:59:40;;;;;;;114.25;42.60;;;8.60;99.90;;;;;;5075080;28;20024;-71
2022/11/16 02:02:06;;;;;;;117.18;42.58;;;8.60;99.90;;;;;;5073837;28;20046;-72
2022/11/16 02:04:31;;;;;;;102.53;36.90;;;8.60;99.90;;;;;;5074418;28;20500;-71
2022/11/16 02:07:07;;;;;;;110.80;40.53;;;8.60;99.90;;;;;;5074941;28;20373;-72
2022/11/16 02:09:54;;;;;;;109.20;40.22;;;8.50;99.90;;;;;;5075212;28;20036;-72
2022/11/16 02:12:40;;;;;;;94.10;37.70;;;8.50;99.90;;;;;;5074992;28;20024;-71
2022/11/16 02:15:14;;;;;;;110.53;39.47;;;8.60;99.90;;;;;;5075311;28;20020;-71
2022/11/16 02:18:21;;;;;;;89.03;37.75;;;8.60;99.90;;;;;;5075480;28;20029;-71
2022/11/16 02:21:18;;;;;;;102.80;38.05;;;8.60;99.90;;;;;;5075299;28;20070;-72
2022/11/16 02:24:20;;;;;;;91.68;37.17;;;8.60;99.90;;;;;;5074650;28;20017;-71
2022/11/16 02:26:54;;;;;;;89.75;36.75;;;8.60;99.90;;;;;;5056353;28;20515;-72
2022/11/16 02:29:31;;;;;;;96.63;36.00;;;8.60;99.90;;;;;;5074593;28;20025;-71
2022/11/16 02:32:12;;;;;;;99.30;37.53;;;8.60;99.90;;;;;;5056631;28;20028;-72
2022/11/16 02:34:47;;;;;;;89.75;35.20;;;8.60;99.90;;;;;;5074353;28;20055;-71
2022/11/16 02:37:17;;;;;;;97.43;38.67;;;8.60;99.90;;;;;;5073848;28;20471;-72
2022/11/16 02:39:48;;;;;;;83.65;35.45;;;8.60;99.90;;;;;;5074582;28;20021;-72
2022/11/16 02:42:21;;;;;;;100.93;36.22;;;8.60;99.90;;;;;;5073388;28;20074;-71
2022/11/16 02:44:49;;;;;;;83.60;36.73;;;8.60;99.90;;;;;;5073823;28;20017;-71
2022/11/16 02:47:21;;;;;;;91.15;35.08;;;8.60;99.90;;;;;;5074458;28;20020;-71
2022/11/16 02:49:53;;;;;;;72.47;31.08;;;8.60;99.90;;;;;;5074559;28;20032;-71
2022/11/16 02:52:20;;;;;;;99.43;32.83;;;8.60;99.90;;;;;;5074281;28;20047;-72
2022/11/16 02:54:46;;;;;;;82.63;33.08;;;8.60;99.90;;;;;;5072114;28;20131;-71
2022/11/16 02:57:35;;;;;;;84.35;32.55;;;8.70;99.90;;;;;;5073905;28;20060;-72
2022/11/16 03:00:03;;;;;;;76.15;32.08;;;8.70;99.90;;;;;;5073979;28;20071;-72
2022/11/16 03:02:44;;;;;;;85.90;32.50;;;8.70;99.90;;;;;;5073292;28;20021;-71
2022/11/16 03:05:35;;;;;;;72.45;31.90;;;8.70;99.90;;;;;;5074414;28;20104;-72
2022/11/16 03:08:06;;;;;;;79.50;32.63;;;8.70;99.90;;;;;;5073778;28;20529;-71
2022/11/16 03:13:23;;;;;;;71.78;28.52;;;8.70;99.90;;;;;;5073810;28;20146;-71
2022/11/16 03:15:49;;;;;;;75.47;30.42;;;8.60;99.90;;;;;;5073980;28;20071;-72
2022/11/16 03:18:16;;;;;;;78.00;29.48;;;8.70;99.90;;;;;;5073214;28;20431;-71
2022/11/16 03:20:43;;;;;;;70.15;29.67;;;8.60;99.90;;;;;;5073832;28;20031;-72
2022/11/16 03:23:11;;;;;;;60.80;28.27;;;8.70;99.90;;;;;;5073726;28;20483;-72
2022/11/16 03:25:44;;;;;;;69.30;27.83;;;8.70;99.90;;;;;;5073547;28;20078;-72
2022/11/16 03:28:22;;;;;;;73.75;26.25;;;8.70;99.90;;;;;;5055069;28;20026;-71
2022/11/16 03:31:01;;;;;;;68.85;27.55;;;8.70;99.90;;;;;;5073861;28;20085;-72
2022/11/16 03:33:33;;;;;;;57.72;26.20;;;8.70;99.90;;;;;;5073603;28;20097;-71
2022/11/16 03:36:20;;;;;;;58.38;24.80;;;8.60;99.90;;;;;;5073010;28;20023;-71
2022/11/16 03:38:49;;;;;;;61.80;25.05;;;8.60;99.90;;;;;;5074140;28;20078;-72
2022/11/16 03:41:16;;;;;;;53.10;24.35;;;8.60;99.90;;;;;;5072230;28;20021;-71
2022/11/16 03:43:43;;;;;;;54.42;23.90;;;8.60;99.90;;;;;;5073550;28;20017;-71
2022/11/16 03:46:10;;;;;;;58.25;23.25;;;8.60;99.90;;;;;;5043289;28;20036;-71
2022/11/16 03:48:38;;;;;;;57.70;24.17;;;8.60;99.90;;;;;;5052755;28;20051;-71
2022/11/16 03:51:05;;;;;;;56.90;24.17;;;8.50;99.90;;;;;;5053942;28;20492;-72
2022/11/16 03:53:30;;;;;;;56.25;25.15;;;8.50;99.90;;;;;;5053463;28;20036;-72
2022/11/16 03:55:56;;;;;;;57.17;24.50;;;8.50;99.90;;;;;;5055611;28;20116;-71
2022/11/16 03:58:22;;;;;;;53.63;24.20;;;8.50;99.90;;;;;;5056004;28;20044;-72
2022/11/16 04:00:47;;;;;;;53.58;22.30;;;8.50;99.90;;;;;;5057371;28;20095;-72
2022/11/16 04:03:13;;;;;;;55.05;22.23;;;8.50;99.90;;;;;;5057354;28;20032;-71
2022/11/16 04:25:43;;;;;;;63.15;24.40;;;8.70;99.90;;;;;;5060368;28;20477;-71
2022/11/16 04:28:17;;;;;;;51.70;21.75;;;8.70;99.90;;;;;;5076954;28;20029;-71
2022/11/16 04:39:20;;;;;;;59.20;25.65;;;8.80;99.90;;;;;;5077163;28;20036;-71
2022/11/16 04:47:05;;;;;;;46.97;22.83;;;8.80;99.90;;;;;;5076501;28;20029;-71
2022/11/16 04:47:18;;;;;;;55.03;23.55;;;8.80;99.90;;;;;;5076173;28;20505;-71
2022/11/16 04:49:43;;;;;;;51.45;22.02;;;8.80;99.90;;;;;;5076332;28;20033;-71
2022/11/16 04:52:09;;;;;;;69.55;24.35;;;8.80;99.90;;;;;;5075929;28;20414;-71
2022/11/16 04:54:35;;;;;;;58.47;22.52;;;8.80;99.90;;;;;;5075184;28;20063;-72
2022/11/16 04:57:00;;;;;;;50.15;22.42;;;8.80;99.90;;;;;;5075146;28;20040;-71
2022/11/16 04:59:26;;;;;;;51.25;22.95;;;8.80;99.90;;;;;;5075918;28;20013;-71
2022/11/16 05:02:09;;;;;;;59.40;20.75;;;8.80;99.90;;;;;;5076633;28;20510;-71
2022/11/16 05:04:39;;;;;;;54.53;22.50;;;8.80;99.90;;;;;;5076787;28;20016;-71
2022/11/16 05:07:09;;;;;;;57.35;20.67;;;8.80;99.90;;;;;;5076499;28;20037;-72
2022/11/16 05:09:41;;;;;;;54.03;23.00;;;8.80;99.90;;;;;;5058893;28;20032;-72
2022/11/16 05:12:08;;;;;;;51.97;20.48;;;8.80;99.90;;;;;;5075692;28;20538;-71
2022/11/16 05:14:34;;;;;;;56.15;22.58;;;8.80;99.90;;;;;;5076012;28;20029;-72
2022/11/16 05:17:00;;;;;;;50.65;23.02;;;8.80;99.90;;;;;;5075959;28;20078;-71
2022/11/16 05:22:09;;;;;;;;;;;8.80;99.90;;;;;;5076609;28;20032;-71
2022/11/16 05:24:34;;;;;;;52.88;21.60;;;8.80;99.90;;;;;;5075916;28;19904;-72
2022/11/16 05:27:09;;;;;;;49.17;23.25;;;8.80;99.90;;;;;;5075195;28;20036;-71
2022/11/16 05:29:35;;;;;;;60.00;22.63;;;8.80;99.90;;;;;;5076084;28;20028;-71
2022/11/16 05:32:02;;;;;;;52.05;24.73;;;8.70;99.90;;;;;;5074363;28;20034;-71
2022/11/16 05:34:28;;;;;;;67.18;26.75;;;8.80;99.90;;;;;;5075375;28;20016;-71
2022/11/16 05:36:55;;;;;;;57.58;24.90;;;8.70;99.90;;;;;;5075029;28;20073;-72
2022/11/16 05:39:20;;;;;;;60.05;23.83;;;8.80;99.90;;;;;;5075587;28;20052;-72
2022/11/16 05:41:46;;;;;;;60.20;25.77;;;8.80;99.90;;;;;;5075572;28;20048;-72
2022/11/16 05:44:13;;;;;;;63.90;24.88;;;8.80;99.90;;;;;;5075332;28;20102;-71
2022/11/16 05:46:39;;;;;;;49.45;23.95;;;8.70;99.90;;;;;;5075531;28;20029;-71
2022/11/16 05:49:07;;;;;;;53.70;25.10;;;8.70;99.90;;;;;;5075598;28;20042;-72
2022/11/16 05:51:37;;;;;;;53.00;25.65;;;8.70;99.90;;;;;;5074765;28;20023;-71
2022/11/16 05:54:03;;;;;;;55.17;25.30;;;8.70;99.90;;;;;;5075289;28;20116;-71
2022/11/16 05:56:29;;;;;;;51.45;25.88;;;8.70;99.90;;;;;;5075526;28;20019;-71
2022/11/16 05:58:55;;;;;;;62.40;27.83;;;8.70;99.90;;;;;;5075427;28;20031;-71
2022/11/16 06:01:21;;;;;;;55.63;27.05;;;8.70;99.90;;;;;;5074444;28;20020;-72
2022/11/16 06:03:47;;;;;;;64.55;28.63;;;8.70;99.90;;;;;;5073986;28;20490;-72
2022/11/16 06:06:12;;;;;;;58.97;28.08;;;8.60;99.90;;;;;;5075045;28;20020;-72
2022/11/16 06:08:38;;;;;;;71.30;30.17;;;8.60;99.90;;;;;;5074567;28;20024;-71
2022/11/16 06:11:05;;;;;;;66.40;28.80;;;8.60;99.90;;;;;;5057083;28;20029;-72
2022/11/16 06:13:31;;;;;;;63.70;29.60;;;8.60;99.90;;;;;;5074884;28;20033;-71
2022/11/16 06:15:57;;;;;;;67.70;30.25;;;8.60;99.90;;;;;;5074849;28;20481;-71
2022/11/16 06:18:23;;;;;;;73.60;31.60;;;8.60;99.90;;;;;;5074622;28;20537;-71
2022/11/16 06:20:49;;;;;;;63.78;30.77;;;8.60;99.90;;;;;;5075257;28;20029;-71
2022/11/16 06:23:15;;;;;;;66.85;32.17;;;8.50;99.90;;;;;;5056420;28;20052;-72
2022/11/16 06:25:40;;;;;;;73.50;34.97;;;8.60;99.90;;;;;;5074840;28;20494;-71
2022/11/16 06:28:06;;;;;;;76.65;33.00;;;8.50;99.90;;;;;;5074532;28;20028;-71
2022/11/16 06:30:31;;;;;;;70.32;31.65;;;8.50;99.90;;;;;;5073983;28;20021;-71
2022/11/16 06:32:57;;;;;;;74.68;33.60;;;8.50;99.90;;;;;;5056163;28;20025;-71
2022/11/16 06:35:22;;;;;;;61.45;31.77;;;8.50;99.90;;;;;;5074719;28;20028;-71
2022/11/16 06:37:48;;;;;;;69.15;31.25;;;8.40;99.90;;;;;;5072992;28;20029;-71
2022/11/16 06:40:14;;;;;;;77.85;32.50;;;8.40;99.90;;;;;;5056660;28;20413;-72
2022/11/16 06:42:40;;;;;;;73.28;31.38;;;8.40;99.90;;;;;;5073743;28;20025;-72
2022/11/16 06:45:06;;;;;;;73.32;30.98;;;8.40;99.90;;;;;;5074175;28;20108;-72
2022/11/16 06:47:32;;;;;;;62.63;30.08;;;8.40;99.90;;;;;;5074139;28;20056;-71
2022/11/16 06:49:57;;;;;;;80.78;30.60;;;8.50;99.90;;;;;;5074156;28;20029;-71
2022/11/16 06:52:23;;;;;;;71.70;32.72;;;8.40;99.90;;;;;;5055852;28;20066;-71
2022/11/16 06:54:48;;;;;;;64.50;31.30;;;8.40;99.90;;;;;;5073862;28;20133;-72
2022/11/16 06:57:14;;;;;;;85.90;35.08;;;8.40;99.90;;;;;;5074018;28;20064;-72
2022/11/16 06:59:39;;;;;;;77.28;34.97;;;8.40;99.90;;;;;;5074273;28;20107;-71
2022/11/16 07:02:05;;;;;;;68.60;32.85;;;8.40;99.90;;;;;;5074003;28;20016;-72
2022/11/16 07:04:31;;;;;;;85.15;32.72;;;8.40;99.90;;;;;;5073852;28;20555;-72
2022/11/16 07:06:57;;;;;;;77.80;33.30;;;8.40;99.90;;;;;;5073238;28;20025;-71
2022/11/16 07:09:23;;;;;;;71.75;31.88;;;8.30;99.90;;;;;;5074387;28;20035;-72
2022/11/16 07:11:48;;;;;;;70.18;32.55;;;8.30;99.90;;;;;;5074091;28;20480;-72
2022/11/16 07:14:14;;;;;;;68.63;31.55;;;8.30;99.90;;;;;;5073673;28;20095;-72
2022/11/16 07:16:39;;;;;;;69.95;30.73;;;8.30;99.90;;;;;;5073686;28;20042;-72
2022/11/16 07:19:05;;;;;;;72.07;31.30;;;8.30;99.90;;;;;;5073619;28;20499;-72
2022/11/16 07:21:31;;;;;;;73.28;31.15;;;8.30;99.90;;;;;;5073200;28;20501;-71
2022/11/16 07:23:56;;;;;;;73.20;32.08;;;8.20;99.90;;;;;;5055610;28;20032;-71
2022/11/16 07:26:22;;;;;;;78.50;31.88;;;8.20;99.90;;;;;;5073570;28;20019;-71
2022/11/16 07:28:48;;;;;;;70.82;30.98;;;8.20;99.90;;;;;;5073019;28;20024;-72
2022/11/16 07:31:15;;;;;;;74.47;31.38;;;8.10;99.90;;;;;;5073768;28;20024;-72
2022/11/16 07:33:40;;;;;;;68.95;31.60;;;8.20;99.90;;;;;;5072971;28;20029;-72
2022/11/16 07:36:09;;;;;;;70.43;30.60;;;8.20;99.90;;;;;;5073479;28;20074;-72
2022/11/16 07:38:34;;;;;;;68.43;31.40;;;8.10;99.90;;;;;;5055356;28;20133;-72
2022/11/16 07:41:11;;;;;;;75.53;33.72;;;8.20;99.90;;;;;;5055514;28;20142;-72
2022/11/16 07:43:38;;;;;;;74.82;31.75;;;8.10;99.90;;;;;;5073261;28;20035;-71
2022/11/16 07:46:13;;;;;;;66.30;31.40;;;8.10;99.90;;;;;;5055167;28;20096;-72
2022/11/16 07:48:39;;;;;;;78.15;34.63;;;8.10;99.90;;;;;;5073648;28;20060;-72
2022/11/16 07:51:07;;;;;;;75.95;33.40;;;8.10;99.90;;;;;;5073402;28;20029;-72
2022/11/16 07:53:33;;;;;;;76.00;34.40;;;8.10;99.90;;;;;;5073407;28;20071;-71
2022/11/16 07:55:59;;;;;;;80.63;35.60;;;8.10;99.90;;;;;;5073804;28;20040;-72
2022/11/16 07:58:27;;;;;;;70.50;34.30;;;8.10;99.90;;;;;;5072853;28;20033;-71
2022/11/16 08:00:52;;;;;;;81.45;33.15;;;8.10;99.90;;;;;;5073271;28;20472;-72
2022/11/16 08:03:20;;;;;;;77.88;33.25;;;8.10;99.90;;;;;;5073521;28;20020;-71
2022/11/16 08:05:46;;;;;;;65.93;32.08;;;8.10;99.90;;;;;;5055234;28;20522;-71
2022/11/16 08:08:11;;;;;;;74.32;32.97;;;8.10;99.90;;;;;;5073766;28;20036;-72
2022/11/16 08:10:37;;;;;;;74.65;32.35;;;8.10;99.90;;;;;;5073465;28;20066;-71
2022/11/16 08:13:03;;;;;;;75.97;30.85;;;8.10;99.90;;;;;;5073035;28;20024;-71
2022/11/16 08:15:29;;;;;;;83.50;31.02;;;8.10;99.90;;;;;;5073130;28;20032;-72
2022/11/16 08:17:57;;;;;;;79.68;30.08;;;8.10;99.90;;;;;;5073023;28;20032;-71
2022/11/16 08:20:22;;;;;;;76.90;31.23;;;8.20;99.90;;;;;;5073095;28;20480;-71
2022/11/16 08:22:48;;;;;;;76.30;30.50;;;8.10;99.90;;;;;;5073287;28;20025;-71
2022/11/16 08:25:14;;;;;;;86.05;32.10;;;8.20;99.90;;;;;;5072602;28;20049;-71
2022/11/16 08:27:40;;;;;;;72.35;29.52;;;8.20;99.90;;;;;;5072942;28;20024;-71
2022/11/16 08:30:08;;;;;;;74.25;29.15;;;8.20;99.90;;;;;;5073021;28;20032;-72
2022/11/16 08:32:35;;;;;;;68.88;29.05;;;8.30;99.90;;;;;;5073098;28;20035;-72
2022/11/16 08:35:00;;;;;;;85.32;31.42;;;8.30;99.90;;;;;;5072339;28;20498;-71
2022/11/16 08:37:27;;;;;;;77.80;31.20;;;8.30;99.90;;;;;;5073063;28;20119;-71
2022/11/16 08:39:53;;;;;;;71.07;28.85;;;8.30;99.90;;;;;;5073762;28;20020;-71
2022/11/16 08:42:18;;;;;;;70.78;30.48;;;8.40;99.90;;;;;;5058705;28;20112;-71
2022/11/16 08:44:44;;;;;;;72.47;27.15;;;8.40;99.90;;;;;;5057954;28;20555;-71
2022/11/16 08:47:10;;;;;;;65.03;27.83;;;8.40;99.90;;;;;;5058644;28;20025;-71
2022/11/16 08:49:35;;;;;;;67.70;29.58;;;8.40;99.90;;;;;;5076521;28;20021;-72
2022/11/16 08:52:01;;;;;;;71.97;29.60;;;8.40;99.90;;;;;;5076391;28;20028;-72
2022/11/16 08:54:29;;;;;;;65.65;28.05;;;8.40;99.90;;;;;;5075869;28;20044;-71
2022/11/16 08:56:55;;;;;;;56.67;26.25;;;8.50;99.90;;;;;;5076422;28;20557;-71
2022/11/16 08:59:20;;;;;;;62.30;27.10;;;8.50;99.90;;;;;;5076979;28;20037;-72
2022/11/16 09:01:46;;;;;;;66.68;28.52;;;8.60;99.90;;;;;;5076734;28;20028;-72
2022/11/16 09:04:11;;;;;;;71.97;27.70;;;8.50;99.90;;;;;;5076202;28;20546;-72
2022/11/16 09:06:37;;;;;;;64.57;27.17;;;8.50;99.90;;;;;;5058299;28;20498;-72
2022/11/16 09:09:03;;;;;;;61.97;27.48;;;8.60;99.90;;;;;;5058209;28;20025;-72
2022/11/16 09:11:28;;;;;;;68.72;28.02;;;8.60;99.90;;;;;;5076120;28;20036;-72
2022/11/16 09:13:54;;;;;;;60.30;28.17;;;8.60;99.90;;;;;;5058028;28;20021;-71
2022/11/16 09:16:21;;;;;;;57.20;28.27;;;8.60;99.90;;;;;;5074753;28;20112;-71
2022/11/16 09:18:51;;;;;;;60.53;27.75;;;8.60;99.90;;;;;;5057371;28;20116;-71
2022/11/16 09:21:25;;;;;;;54.80;26.38;;;8.60;99.90;;;;;;5075905;28;20025;-72
2022/11/16 09:23:51;;;;;;;74.50;25.00;;;8.60;99.90;;;;;;5075992;28;20024;-72
2022/11/16 09:26:20;;;;;;;50.97;23.48;;;8.70;99.90;;;;;;5075253;28;20051;-71
2022/11/16 09:28:46;;;;;;;55.13;24.85;;;8.60;99.90;;;;;;5075810;28;20020;-71
2022/11/16 09:31:11;;;;;;;57.15;21.75;;;8.70;99.90;;;;;;5075767;28;20028;-71
2022/11/16 09:33:37;;;;;;;48.63;21.75;;;8.70;99.90;;;;;;5076146;28;20085;-71
2022/11/16 09:36:07;;;;;;;37.13;19.67;;;8.70;99.90;;;;;;5057260;28;20027;-71
2022/11/16 09:38:41;;;;;;;56.33;20.60;;;8.70;99.90;;;;;;5075585;28;20107;-71
2022/11/16 09:41:15;;;;;;;41.90;21.25;;;8.70;99.90;;;;;;5075867;28;20069;-71
2022/11/16 09:43:41;;;;;;;50.70;21.77;;;8.70;99.90;;;;;;5057701;28;20025;-71
2022/11/16 09:46:31;;;;;;;44.38;20.88;;;8.70;99.90;;;;;;5073602;28;20573;-71
2022/11/16 09:48:59;;;;;;;47.47;19.85;;;8.70;99.90;;;;;;5065197;28;20559;-71
2022/11/16 09:51:31;;;;;;;50.40;20.77;;;8.70;99.90;;;;;;5074559;28;20028;-70
2022/11/16 09:54:04;;;;;;;47.08;19.75;;;8.70;99.90;;;;;;5073650;28;20059;-71
2022/11/16 09:56:34;;;;;;;37.42;19.55;;;8.60;99.90;;;;;;5055628;28;20546;-71
2022/11/16 09:59:08;;;;;;;45.05;19.48;;;8.60;99.90;;;;;;5054685;28;20029;-71
2022/11/16 10:01:56;;;;;;;37.50;17.13;;;8.60;99.90;;;;;;5053905;28;20598;-71
2022/11/16 10:04:35;;;;;;;41.13;19.30;;;8.60;99.90;;;;;;5066183;28;20020;-71
2022/11/16 10:07:13;;;;;;;41.00;19.15;;;8.60;99.90;;;;;;5075317;28;20115;-71
2022/11/16 10:09:38;;;;;;;37.08;17.80;;;8.60;99.90;;;;;;5074433;28;20064;-71
2022/11/16 10:12:32;;;;;;;47.28;17.73;;;8.60;99.90;;;;;;5074946;28;20048;-71
2022/11/16 10:15:05;;;;;;;38.35;18.75;;;8.60;99.90;;;;;;5074779;28;20032;-71
2022/11/16 10:17:47;;;;;;;43.20;18.20;;;8.60;99.90;;;;;;5074744;28;20020;-71
2022/11/16 10:20:36;;;;;;;34.33;17.50;;;8.60;99.90;;;;;;5056761;28;20078;-71
2022/11/16 10:23:33;;;;;;;44.22;16.98;;;8.60;99.90;;;;;;5074893;28;20119;-71
2022/11/16 10:26:26;;;;;;;39.35;17.15;;;8.60;99.90;;;;;;5074864;28;20105;-71
2022/11/16 10:29:37;;;;;;;32.58;16.73;;;8.60;99.90;;;;;;5037503;28;20043;-71
2022/11/16 10:32:11;;;;;;;36.78;18.75;;;8.50;99.90;;;;;;5063690;28;20556;-72
2022/11/16 10:34:45;;;;;;;38.75;17.20;;;8.50;99.90;;;;;;5074551;28;20028;-71
2022/11/16 10:37:12;;;;;;;44.67;17.85;;;8.50;99.90;;;;;;5055797;28;20029;-72
2022/11/16 10:39:39;;;;;;;39.35;17.27;;;8.50;99.90;;;;;;5056571;28;20472;-71
2022/11/16 10:42:15;;;;;;;31.80;16.08;;;8.50;99.90;;;;;;5074310;28;20088;-71
2022/11/16 10:44:44;;;;;;;40.97;19.40;;;8.50;99.90;;;;;;5074096;28;20028;-71
2022/11/16 10:47:26;;;;;;;33.63;16.58;;;8.50;99.90;;;;;;5074727;28;20163;-72
2022/11/16 10:49:59;;;;;;;36.38;17.55;;;8.50;99.90;;;;;;5074997;28;20024;-72
2022/11/16 10:52:25;;;;;;;34.20;17.63;;;8.40;99.90;;;;;;5074051;28;20506;-72
2022/11/16 10:54:51;;;;;;;40.58;17.70;;;8.40;99.90;;;;;;5072869;23;20049;-71
2022/11/16 10:57:17;;;;;;;36.47;17.98;;;8.40;99.90;;;;;;5054307;28;20032;-72
2022/11/16 10:59:44;;;;;;;38.90;18.48;;;8.40;99.90;;;;;;5069341;28;20025;-72
2022/11/16 11:02:21;;;;;;;34.90;17.00;;;8.40;99.90;;;;;;5073659;28;20476;-71
2022/11/16 11:05:02;;;;;;;37.17;16.42;;;8.30;99.90;;;;;;5071853;28;20134;-72
2022/11/16 11:07:38;;;;;;;37.80;19.02;;;8.30;99.90;;;;;;5073600;28;20063;-71
2022/11/16 11:10:19;;;;;;;41.65;18.17;;;8.30;99.90;;;;;;5072690;28;20118;-72
2022/11/16 11:13:00;;;;;;;30.27;16.83;;;8.30;99.90;;;;;;5055283;28;20036;-72
2022/11/16 11:15:26;;;;;;;42.47;17.48;;;8.30;99.90;;;;;;5073807;28;20032;-71
2022/11/16 11:18:12;;;;;;;36.13;17.27;;;8.30;99.90;;;;;;5073705;28;20403;-72
2022/11/16 11:20:40;;;;;;;38.00;18.63;;;8.30;99.90;;;;;;5073781;28;20154;-72
2022/11/16 11:23:19;;;;;;;32.30;16.83;;;8.30;99.90;;;;;;5073883;28;20024;-72
2022/11/16 11:25:59;;;;;;;32.75;16.33;;;8.30;99.90;;;;;;5073581;28;20484;-72
2022/11/16 11:28:30;;;;;;;35.10;17.75;;;8.30;99.90;;;;;;5055520;28;20071;-71
2022/11/16 11:30:59;;;;;;;33.78;17.92;;;8.30;99.90;;;;;;5055628;28;20031;-71
2022/11/16 11:33:31;;;;;;;34.38;17.10;;;8.30;99.90;;;;;;5073469;28;20024;-72
2022/11/16 11:36:06;;;;;;;41.08;18.38;;;8.30;99.90;;;;;;5073285;28;20028;-72
2022/11/16 11:38:34;;;;;;;40.55;19.95;;;8.30;99.90;;;;;;5055552;28;20027;-71
2022/11/16 11:41:03;;;;;;;42.92;18.95;;;8.30;99.90;;;;;;5072893;28;20032;-71
2022/11/16 11:43:32;;;;;;;38.63;17.48;;;8.30;99.90;;;;;;5055604;28;20028;-71
2022/11/16 11:46:19;;;;;;;37.13;18.52;;;8.30;99.90;;;;;;5073345;28;20564;-71
2022/11/16 11:48:57;;;;;;;36.30;16.15;;;8.30;99.90;;;;;;5015804;28;20076;-71
2022/11/16 11:51:32;;;;;;;31.85;17.17;;;8.30;99.90;;;;;;5034061;28;20099;-70
2022/11/16 11:54:01;;;;;;;40.13;19.08;;;8.30;99.90;;;;;;5035905;28;20515;-71
2022/11/16 11:56:29;;;;;;;35.30;17.58;;;8.30;99.90;;;;;;5073882;28;20035;-70
2022/11/16 11:58:55;;;;;;;35.30;18.65;;;8.30;99.90;;;;;;5073241;28;20428;-71
2022/11/16 12:01:47;;;;;;;43.03;19.23;;;8.30;99.90;;;;;;5072065;28;20029;-71
2022/11/16 12:04:51;;;;;;;39.67;19.38;;;8.30;99.90;;;;;;5055278;28;20495;-71
2022/11/16 12:07:43;;;;;;;37.55;20.42;;;8.20;99.90;;;;;;5044771;28;20411;-70
2022/11/16 12:10:27;;;;;;;57.55;22.45;;;8.20;99.90;;;;;;5042554;28;20064;-71
2022/11/16 12:13:11;;;;;;;;;;;8.10;99.90;;;;;;5053661;28;20021;-70
2022/11/16 12:15:52;;;;;;;38.80;19.88;;;8.10;99.90;;;;;;5055404;28;19948;-71
2022/11/16 12:18:39;;;;;;;36.53;18.70;;;8.10;99.90;;;;;;5038683;28;20032;-70
2022/11/16 12:21:16;;;;;;;47.45;20.92;;;8.10;99.90;;;;;;5037260;28;20485;-71
2022/11/16 12:24:00;;;;;;;42.17;19.98;;;8.10;99.90;;;;;;5037492;28;20360;-71
2022/11/16 12:26:47;;;;;;;43.22;21.10;;;8.10;99.90;;;;;;5036033;28;20427;-70
2022/11/16 12:29:24;;;;;;;45.58;22.83;;;8.00;99.90;;;;;;5059159;28;20028;-71
2022/11/16 12:32:18;;;;;;;46.13;22.58;;;7.90;99.90;;;;;;5058988;28;20031;-71
2022/11/16 12:34:46;;;;;;;47.33;22.98;;;7.90;99.90;;;;;;5058921;28;20017;-70
2022/11/16 12:37:22;;;;;;;47.67;23.65;;;7.80;99.90;;;;;;5076649;28;20364;-70
2022/11/16 12:40:15;;;;;;;44.90;23.85;;;7.80;99.90;;;;;;5076565;28;20021;-70
2022/11/16 12:43:15;;;;;;;48.03;24.03;;;7.70;99.90;;;;;;5076781;28;20082;-71
2022/11/16 12:46:10;;;;;;;51.15;25.42;;;7.70;99.90;;;;;;5076752;28;20262;-70
2022/11/16 12:48:35;;;;;;;62.17;26.92;;;7.70;99.90;;;;;;5075816;28;20028;-70
2022/11/16 12:51:26;;;;;;;49.97;25.35;;;7.60;99.90;;;;;;5076462;28;20024;-70
2022/11/16 12:54:12;;;;;;;52.28;27.15;;;7.60;99.90;;;;;;5076641;28;20531;-70
2022/11/16 12:56:49;;;;;;;50.05;24.25;;;7.60;99.90;;;;;;5058597;28;20086;-70
2022/11/16 12:59:35;;;;;;;50.10;25.20;;;7.60;99.90;;;;;;5058823;28;20034;-70
2022/11/16 13:02:25;;;;;;;54.22;26.15;;;7.60;99.90;;;;;;5058973;28;20527;-70
2022/11/16 13:05:01;;;;;;;50.58;27.33;;;7.50;99.90;;;;;;5058296;28;20484;-70
2022/11/16 13:07:35;;;;;;;55.55;27.08;;;7.50;99.90;;;;;;5076451;28;20025;-70
2022/11/16 13:10:21;;;;;;;49.10;28.20;;;7.50;99.90;;;;;;5076340;28;20551;-70
2022/11/16 13:12:52;;;;;;;50.78;28.08;;;7.50;99.90;;;;;;5058007;28;20033;-70
2022/11/16 13:15:22;;;;;;;53.15;27.92;;;7.50;99.90;;;;;;5058182;28;20123;-70
2022/11/16 13:17:58;;;;;;;52.13;26.23;;;7.50;99.90;;;;;;5075819;28;20025;-70
2022/11/16 13:20:38;;;;;;;50.38;28.20;;;7.50;99.90;;;;;;5075856;28;20029;-70
2022/11/16 13:23:21;;;;;;;52.83;28.48;;;7.50;99.90;;;;;;5075946;28;20069;-70
2022/11/16 13:26:09;;;;;;;47.38;27.70;;;7.40;99.90;;;;;;5057733;28;20476;-70
2022/11/16 13:29:00;;;;;;;48.08;27.40;;;7.40;99.90;;;;;;5057632;28;20036;-70
2022/11/16 13:31:48;;;;;;;53.42;27.35;;;7.40;99.90;;;;;;5075883;28;20025;-70
2022/11/16 13:34:27;;;;;;;48.65;25.55;;;7.40;99.90;;;;;;5075673;28;20104;-70